Station Historical Data
Daily Summary for February 15, 2017 Units:  English    Metric   Both
« Previous Day
Next Day »
Daily Weekly Monthly Yearly Custom
  High: Low: Average:
Temperature: 36.4 °F 23.4 °F 31 °F
Dew Point: 32.9 °F 19.1 °F 26.9 °F
Humidity: 92% 74% 85%
Wind Speed: 16.0mph 0.0mph 5.1mph
Wind Gust: 21.0mph - -
Wind- - West
Pressure: 29.68 in 29.48 in -
Precipitation: 0.00 in    
Historical Graphs
 
 
Tabular Data for February 15, 2017
Time Temperature Dew Point Pressure Wind Wind Speed Wind Gust Humidity Rainfall Rate (Hourly)
00:04 36.4 °F 32.9 °F 29.53 in SW 3.0 mph 5.0 mph 87% 0.00 in
00:09 36.3 °F 32.8 °F 29.53 in SW 2.0 mph 4.0 mph 87% 0.00 in
00:14 36.3 °F 32.8 °F 29.53 in WSW 2.0 mph 4.0 mph 87% 0.00 in
00:19 36.1 °F 32.6 °F 29.53 in Calm   2.0 mph 87% 0.00 in
00:24 35.9 °F 32.4 °F 29.53 in SSW 1.0 mph 4.0 mph 87% 0.00 in
00:29 36.0 °F 32.5 °F 29.52 in SW 4.0 mph 5.0 mph 87% 0.00 in
00:34 36.1 °F 32.6 °F 29.52 in SW 3.0 mph 5.0 mph 87% 0.00 in
00:39 36.2 °F 32.4 °F 29.51 in SSW 3.0 mph 5.0 mph 86% 0.00 in
00:44 36.0 °F 32.2 °F 29.50 in SSW 3.0 mph 5.0 mph 86% 0.00 in
00:49 35.9 °F 32.1 °F 29.50 in SSW 3.0 mph 5.0 mph 86% 0.00 in
00:54 35.7 °F 31.9 °F 29.50 in South 3.0 mph 5.0 mph 86% 0.00 in
00:59 35.5 °F 31.7 °F 29.51 in SW 3.0 mph 5.0 mph 86% 0.00 in
01:04 35.6 °F 32.1 °F 29.52 in WSW 5.0 mph 8.0 mph 87% 0.00 in
01:09 35.6 °F 31.8 °F 29.52 in SW 3.0 mph 9.0 mph 86% 0.00 in
01:14 35.5 °F 31.7 °F 29.52 in SW 4.0 mph 7.0 mph 86% 0.00 in
01:19 35.4 °F 31.6 °F 29.51 in SSE 2.0 mph 7.0 mph 86% 0.00 in
01:24 35.4 °F 31.6 °F 29.51 in SSW 2.0 mph 8.0 mph 86% 0.00 in
01:29 35.4 °F 31.9 °F 29.51 in SW 5.0 mph 9.0 mph 87% 0.00 in
01:34 35.5 °F 32.0 °F 29.51 in SW 3.0 mph 8.0 mph 87% 0.00 in
01:39 35.6 °F 32.1 °F 29.51 in SW 4.0 mph 9.0 mph 87% 0.00 in
01:44 35.7 °F 32.2 °F 29.51 in SW 4.0 mph 9.0 mph 87% 0.00 in
01:49 35.7 °F 32.2 °F 29.51 in SW 5.0 mph 6.0 mph 87% 0.00 in
01:54 35.7 °F 32.2 °F 29.51 in SW 3.0 mph 7.0 mph 87% 0.00 in
01:59 35.8 °F 32.3 °F 29.51 in SW 4.0 mph 7.0 mph 87% 0.00 in
02:04 35.8 °F 32.3 °F 29.51 in WSW 6.0 mph 7.0 mph 87% 0.00 in
02:09 35.8 °F 32.3 °F 29.51 in SW 4.0 mph 9.0 mph 87% 0.00 in
02:14 35.8 °F 32.3 °F 29.51 in SSW 7.0 mph 8.0 mph 87% 0.00 in
02:19 35.9 °F 32.4 °F 29.51 in SW 3.0 mph 10.0 mph 87% 0.00 in
02:24 35.8 °F 32.3 °F 29.50 in SSW 4.0 mph 9.0 mph 87% 0.00 in
02:29 35.8 °F 32.3 °F 29.51 in SW 4.0 mph 9.0 mph 87% 0.00 in
02:34 35.8 °F 32.3 °F 29.50 in WSW 1.0 mph 5.0 mph 87% 0.00 in
02:39 35.7 °F 32.2 °F 29.50 in WNW 4.0 mph 6.0 mph 87% 0.00 in
02:44 35.6 °F 32.1 °F 29.50 in WSW 3.0 mph 6.0 mph 87% 0.01 in
02:49 35.5 °F 32.3 °F 29.50 in West 2.0 mph 4.0 mph 88% 0.01 in
02:54 35.4 °F 32.2 °F 29.50 in West 3.0 mph 7.0 mph 88% 0.01 in
02:59 35.3 °F 32.1 °F 29.50 in SW 5.0 mph 9.0 mph 88% 0.01 in
03:04 35.3 °F 32.1 °F 29.50 in SSW 2.0 mph 7.0 mph 88% 0.01 in
03:09 35.3 °F 32.1 °F 29.50 in SW 2.0 mph 5.0 mph 88% 0.01 in
03:14 35.2 °F 32.0 °F 29.50 in SW 2.0 mph 6.0 mph 88% 0.01 in
03:19 35.2 °F 32.0 °F 29.50 in WSW 2.0 mph 6.0 mph 88% 0.01 in
03:24 35.1 °F 31.9 °F 29.49 in SW 2.0 mph 6.0 mph 88% 0.01 in
03:29 35.1 °F 31.9 °F 29.49 in SW 2.0 mph 5.0 mph 88% 0.01 in
03:34 35.1 °F 31.9 °F 29.49 in SW 2.0 mph 6.0 mph 88% 0.01 in
03:39 35.0 °F 31.8 °F 29.49 in WSW 3.0 mph 5.0 mph 88% 0.01 in
03:44 35.0 °F 31.8 °F 29.49 in SW 2.0 mph 6.0 mph 88% 0.00 in
03:49 34.9 °F 31.7 °F 29.48 in SW 2.0 mph 6.0 mph 88% 0.00 in
03:54 34.8 °F 31.9 °F 29.48 in SW 2.0 mph 6.0 mph 89% 0.00 in
03:59 34.8 °F 31.6 °F 29.48 in SW 2.0 mph 6.0 mph 88% 0.00 in
04:04 34.8 °F 31.9 °F 29.48 in SSW 1.0 mph 3.0 mph 89% 0.00 in
04:09 34.8 °F 31.9 °F 29.48 in SSW 2.0 mph 4.0 mph 89% 0.00 in
04:14 34.7 °F 31.8 °F 29.48 in SW 1.0 mph 3.0 mph 89% 0.00 in
04:19 34.6 °F 31.7 °F 29.48 in SW 1.0 mph 4.0 mph 89% 0.00 in
04:24 34.6 °F 31.7 °F 29.48 in SW 3.0 mph 6.0 mph 89% 0.00 in
04:29 34.4 °F 31.5 °F 29.48 in SW 3.0 mph 6.0 mph 89% 0.00 in
04:34 34.3 °F 31.4 °F 29.48 in SW 3.0 mph 6.0 mph 89% 0.00 in
04:39 34.2 °F 31.3 °F 29.48 in SW 4.0 mph 10.0 mph 89% 0.00 in
04:44 34.1 °F 31.2 °F 29.48 in SW 4.0 mph 8.0 mph 89% 0.00 in
04:49 34.1 °F 31.2 °F 29.48 in SW 4.0 mph 5.0 mph 89% 0.00 in
04:54 33.9 °F 31.0 °F 29.48 in SW 3.0 mph 7.0 mph 89% 0.00 in
04:59 33.8 °F 31.2 °F 29.48 in SW 4.0 mph 7.0 mph 90% 0.00 in
05:04 33.7 °F 31.1 °F 29.48 in WSW 5.0 mph 9.0 mph 90% 0.01 in
05:09 33.6 °F 31.0 °F 29.48 in SW 5.0 mph 9.0 mph 90% 0.01 in
05:14 33.4 °F 30.8 °F 29.48 in SW 3.0 mph 7.0 mph 90% 0.01 in
05:19 33.3 °F 30.7 °F 29.48 in SW 1.0 mph 7.0 mph 90% 0.01 in
05:24 33.2 °F 30.6 °F 29.48 in SW 4.0 mph 9.0 mph 90% 0.01 in
05:29 33.1 °F 30.8 °F 29.48 in SSW 4.0 mph 9.0 mph 91% 0.01 in
05:34 33.0 °F 30.7 °F 29.48 in SSW 4.0 mph 7.0 mph 91% 0.01 in
05:39 33.0 °F 30.7 °F 29.48 in South 3.0 mph 8.0 mph 91% 0.01 in
05:44 32.9 °F 30.6 °F 29.48 in SW 3.0 mph 7.0 mph 91% 0.01 in
05:49 32.8 °F 30.7 °F 29.48 in SW 4.0 mph 6.0 mph 92% 0.01 in
05:54 32.8 °F 30.7 °F 29.48 in SW 4.0 mph 7.0 mph 92% 0.01 in
05:59 32.8 °F 30.7 °F 29.48 in SW 4.0 mph 7.0 mph 92% 0.01 in
06:04 32.9 °F 30.8 °F 29.48 in SW 3.0 mph 7.0 mph 92% 0.00 in
06:09 32.8 °F 30.7 °F 29.48 in WSW 4.0 mph 8.0 mph 92% 0.00 in
06:14 32.8 °F 30.7 °F 29.48 in SW 4.0 mph 8.0 mph 92% 0.00 in
06:19 32.9 °F 30.8 °F 29.48 in WSW 4.0 mph 8.0 mph 92% 0.00 in
06:24 32.9 °F 30.8 °F 29.48 in Calm   5.0 mph 92% 0.00 in
06:34 32.8 °F 30.7 °F 29.48 in West 2.0 mph 5.0 mph 92% 0.00 in
06:39 32.8 °F 30.7 °F 29.48 in West 3.0 mph 5.0 mph 92% 0.00 in
06:44 32.8 °F 30.7 °F 29.48 in West 3.0 mph 5.0 mph 92% 0.00 in
06:49 32.8 °F 30.7 °F 29.48 in West 4.0 mph 6.0 mph 92% 0.00 in
06:54 32.8 °F 30.7 °F 29.48 in West 5.0 mph 6.0 mph 92% 0.00 in
06:59 32.9 °F 30.6 °F 29.48 in NW 2.0 mph 7.0 mph 91% 0.00 in
07:04 32.8 °F 30.5 °F 29.48 in WNW 3.0 mph 7.0 mph 91% 0.00 in
07:09 32.8 °F 30.5 °F 29.48 in NW 3.0 mph 7.0 mph 91% 0.00 in
07:14 32.8 °F 30.2 °F 29.48 in NW 3.0 mph 7.0 mph 90% 0.00 in
07:19 32.8 °F 30.2 °F 29.48 in NW 3.0 mph 6.0 mph 90% 0.00 in
07:24 32.8 °F 29.9 °F 29.48 in NW 3.0 mph 9.0 mph 89% 0.00 in
07:29 32.7 °F 29.5 °F 29.48 in NNW 2.0 mph 8.0 mph 88% 0.00 in
07:34 32.8 °F 29.6 °F 29.48 in NW 4.0 mph 8.0 mph 88% 0.00 in
07:39 32.8 °F 29.4 °F 29.48 in WNW 4.0 mph 10.0 mph 87% 0.00 in
07:44 32.7 °F 29.3 °F 29.48 in NW 6.0 mph 9.0 mph 87% 0.00 in
07:49 32.5 °F 29.1 °F 29.49 in NNW 4.0 mph 8.0 mph 87% 0.00 in
07:54 32.3 °F 29.1 °F 29.49 in NNW 4.0 mph 8.0 mph 88% 0.00 in
07:59 32.0 °F 28.8 °F 29.49 in North 6.0 mph 10.0 mph 88% 0.00 in
08:04 31.7 °F 28.8 °F 29.49 in NNW 2.0 mph 11.0 mph 89% 0.00 in
08:09 31.6 °F 28.7 °F 29.49 in NW 5.0 mph 11.0 mph 89% 0.00 in
08:14 31.6 °F 29.0 °F 29.50 in NW 4.0 mph 9.0 mph 90% 0.00 in
08:19 31.6 °F 29.0 °F 29.50 in NW 4.0 mph 11.0 mph 90% 0.00 in
08:24 31.6 °F 29.0 °F 29.50 in WNW 4.0 mph 11.0 mph 90% 0.00 in
08:29 31.6 °F 29.0 °F 29.50 in NNW 6.0 mph 8.0 mph 90% 0.00 in
08:34 31.4 °F 28.8 °F 29.51 in WNW 4.0 mph 10.0 mph 90% 0.00 in
08:39 31.4 °F 28.8 °F 29.51 in NW 4.0 mph 10.0 mph 90% 0.00 in
08:44 31.3 °F 28.7 °F 29.51 in WNW 6.0 mph 10.0 mph 90% 0.00 in
08:49 31.1 °F 28.2 °F 29.51 in WNW 5.0 mph 13.0 mph 89% 0.00 in
08:54 30.9 °F 28.0 °F 29.51 in NW 5.0 mph 10.0 mph 89% 0.00 in
08:59 30.8 °F 27.9 °F 29.51 in West 4.0 mph 9.0 mph 89% 0.00 in
09:04 30.8 °F 27.9 °F 29.51 in WNW 5.0 mph 9.0 mph 89% 0.00 in
09:09 30.7 °F 27.8 °F 29.51 in NNW 6.0 mph 11.0 mph 89% 0.00 in
09:14 30.8 °F 27.7 °F 29.51 in NW 5.0 mph 12.0 mph 88% 0.00 in
09:19 30.8 °F 27.7 °F 29.51 in NW 4.0 mph 12.0 mph 88% 0.00 in
09:24 31.0 °F 27.6 °F 29.51 in NW 5.0 mph 11.0 mph 87% 0.00 in
09:29 31.3 °F 27.6 °F 29.51 in WNW 4.0 mph 11.0 mph 86% 0.00 in
09:34 31.5 °F 27.5 °F 29.52 in NW 4.0 mph 8.0 mph 85% 0.00 in
09:39 31.6 °F 27.3 °F 29.52 in WNW 4.0 mph 9.0 mph 84% 0.00 in
09:44 31.6 °F 27.3 °F 29.52 in WNW 5.0 mph 9.0 mph 84% 0.00 in
09:49 31.7 °F 27.4 °F 29.52 in WNW 5.0 mph 9.0 mph 84% 0.00 in
09:54 31.8 °F 27.5 °F 29.52 in West 3.0 mph 7.0 mph 84% 0.00 in
09:59 31.9 °F 27.9 °F 29.52 in NW 3.0 mph 8.0 mph 85% 0.01 in
10:04 32.0 °F 28.0 °F 29.52 in West 5.0 mph 10.0 mph 85% 0.01 in
10:09 32.1 °F 28.4 °F 29.52 in West 4.0 mph 10.0 mph 86% 0.01 in
10:14 32.2 °F 28.2 °F 29.52 in WSW 5.0 mph 10.0 mph 85% 0.01 in
10:19 32.4 °F 28.7 °F 29.52 in SW 5.0 mph 7.0 mph 86% 0.01 in
10:24 32.3 °F 28.6 °F 29.52 in WSW 5.0 mph 8.0 mph 86% 0.01 in
10:29 32.4 °F 29.0 °F 29.52 in WSW 5.0 mph 9.0 mph 87% 0.01 in
10:34 32.5 °F 29.1 °F 29.52 in WSW 5.0 mph 10.0 mph 87% 0.01 in
10:39 32.8 °F 29.4 °F 29.52 in WSW 5.0 mph 11.0 mph 87% 0.01 in
10:44 33.0 °F 29.3 °F 29.52 in WSW 3.0 mph 13.0 mph 86% 0.01 in
10:49 33.1 °F 28.8 °F 29.52 in NW 3.0 mph 14.0 mph 84% 0.01 in
10:54 33.2 °F 28.6 °F 29.52 in West 5.0 mph 10.0 mph 83% 0.01 in
10:59 33.4 °F 28.8 °F 29.52 in West 6.0 mph 15.0 mph 83% 0.00 in
11:04 33.2 °F 28.0 °F 29.52 in WSW 7.0 mph 15.0 mph 81% 0.00 in
11:09 33.4 °F 28.2 °F 29.53 in WNW 5.0 mph 10.0 mph 81% 0.00 in
11:14 33.3 °F 27.5 °F 29.52 in West 4.0 mph 10.0 mph 79% 0.00 in
11:19 33.4 °F 27.6 °F 29.53 in West 4.0 mph 13.0 mph 79% 0.00 in
11:24 33.8 °F 28.0 °F 29.53 in West 10.0 mph 12.0 mph 79% 0.00 in
11:29 34.6 °F 28.8 °F 29.53 in West 5.0 mph 12.0 mph 79% 0.00 in
11:34 34.5 °F 28.0 °F 29.53 in WSW 7.0 mph 14.0 mph 77% 0.00 in
11:39 34.6 °F 28.1 °F 29.53 in West 7.0 mph 14.0 mph 77% 0.00 in
11:44 33.7 °F 26.6 °F 29.53 in WNW 3.0 mph 11.0 mph 75% 0.00 in
11:49 34.0 °F 27.2 °F 29.52 in West 6.0 mph 11.0 mph 76% 0.00 in
11:54 34.5 °F 27.4 °F 29.52 in West 6.0 mph 14.0 mph 75% 0.00 in
11:59 34.4 °F 27.9 °F 29.53 in SSW 6.0 mph 12.0 mph 77% 0.00 in
12:04 35.4 °F 29.2 °F 29.52 in WSW 8.0 mph 15.0 mph 78% 0.00 in
12:09 36.2 °F 29.4 °F 29.52 in SW 8.0 mph 15.0 mph 76% 0.00 in
12:14 36.3 °F 29.1 °F 29.52 in WSW 8.0 mph 16.0 mph 75% 0.00 in
12:19 35.9 °F 29.1 °F 29.52 in WSW 8.0 mph 15.0 mph 76% 0.00 in
12:24 36.0 °F 29.5 °F 29.52 in SW 13.0 mph 14.0 mph 77% 0.00 in
12:29 35.2 °F 28.7 °F 29.51 in WSW 6.0 mph 17.0 mph 77% 0.00 in
12:34 35.1 °F 28.9 °F 29.51 in WSW 8.0 mph 17.0 mph 78% 0.00 in
12:39 35.4 °F 28.9 °F 29.51 in WSW 8.0 mph 13.0 mph 77% 0.00 in
12:44 34.9 °F 28.4 °F 29.51 in SW 7.0 mph 16.0 mph 77% 0.00 in
12:49 34.6 °F 28.4 °F 29.51 in SW 12.0 mph 14.0 mph 78% 0.00 in
12:54 33.9 °F 28.1 °F 29.51 in SW 8.0 mph 14.0 mph 79% 0.00 in
12:59 33.4 °F 27.9 °F 29.51 in WSW 8.0 mph 13.0 mph 80% 0.00 in
13:04 33.0 °F 28.1 °F 29.51 in WSW 11.0 mph 11.0 mph 82% 0.00 in
13:09 32.7 °F 27.8 °F 29.51 in WSW 7.0 mph 14.0 mph 82% 0.00 in
13:14 32.4 °F 27.8 °F 29.51 in WSW 8.0 mph 16.0 mph 83% 0.00 in
13:19 32.2 °F 27.9 °F 29.51 in WSW 8.0 mph 16.0 mph 84% 0.00 in
13:24 32.2 °F 28.2 °F 29.51 in WSW 5.0 mph 12.0 mph 85% 0.00 in
13:29 32.2 °F 28.2 °F 29.51 in WSW 7.0 mph 14.0 mph 85% 0.00 in
13:34 32.4 °F 28.4 °F 29.51 in West 2.0 mph 12.0 mph 85% 0.00 in
13:39 32.3 °F 28.6 °F 29.51 in WNW 5.0 mph 8.0 mph 86% 0.00 in
13:44 32.1 °F 28.7 °F 29.51 in WSW 5.0 mph 15.0 mph 87% 0.00 in
13:49 31.9 °F 28.5 °F 29.51 in West 6.0 mph 15.0 mph 87% 0.00 in
13:54 31.9 °F 28.5 °F 29.51 in WSW 6.0 mph 15.0 mph 87% 0.00 in
13:59 32.0 °F 28.8 °F 29.51 in WSW 6.0 mph 15.0 mph 88% 0.00 in
14:04 32.2 °F 29.0 °F 29.51 in WSW 5.0 mph 10.0 mph 88% 0.01 in
14:09 32.2 °F 29.0 °F 29.51 in WSW 6.0 mph 12.0 mph 88% 0.01 in
14:14 32.4 °F 29.2 °F 29.51 in WSW 5.0 mph 12.0 mph 88% 0.01 in
14:19 32.4 °F 29.2 °F 29.51 in SSW 3.0 mph 10.0 mph 88% 0.01 in
14:24 32.4 °F 29.2 °F 29.51 in West 5.0 mph 13.0 mph 88% 0.01 in
14:29 32.2 °F 29.0 °F 29.52 in West 3.0 mph 13.0 mph 88% 0.01 in
14:34 32.2 °F 29.0 °F 29.53 in NNW 5.0 mph 12.0 mph 88% 0.01 in
14:39 31.3 °F 28.2 °F 29.53 in NW 5.0 mph 12.0 mph 88% 0.01 in
14:44 30.9 °F 28.0 °F 29.53 in WNW 4.0 mph 9.0 mph 89% 0.01 in
14:49 31.1 °F 28.5 °F 29.53 in WNW 5.0 mph 7.0 mph 90% 0.01 in
14:54 31.4 °F 28.8 °F 29.53 in NW 1.0 mph 6.0 mph 90% 0.01 in
14:59 31.4 °F 28.5 °F 29.53 in NW 3.0 mph 6.0 mph 89% 0.01 in
15:04 31.6 °F 28.7 °F 29.53 in WNW 3.0 mph 8.0 mph 89% 0.00 in
15:09 31.7 °F 28.8 °F 29.53 in WNW 3.0 mph 8.0 mph 89% 0.00 in
15:14 31.6 °F 28.7 °F 29.54 in NW 3.0 mph 6.0 mph 89% 0.00 in
15:19 31.6 °F 28.7 °F 29.54 in WNW 4.0 mph 9.0 mph 89% 0.00 in
15:24 31.5 °F 28.6 °F 29.54 in NW 3.0 mph 12.0 mph 89% 0.00 in
15:29 31.4 °F 28.8 °F 29.54 in WNW 5.0 mph 12.0 mph 90% 0.00 in
15:34 31.2 °F 28.6 °F 29.54 in NW 3.0 mph 14.0 mph 90% 0.00 in
15:39 31.2 °F 28.6 °F 29.55 in WNW 4.0 mph 10.0 mph 90% 0.00 in
15:44 31.1 °F 28.5 °F 29.55 in NW 3.0 mph 10.0 mph 90% 0.00 in
15:49 30.8 °F 28.2 °F 29.55 in NNW 7.0 mph 14.0 mph 90% 0.00 in
15:54 30.3 °F 27.2 °F 29.55 in WNW 4.0 mph 19.0 mph 88% 0.00 in
15:59 30.1 °F 26.7 °F 29.56 in NW 8.0 mph 19.0 mph 87% 0.00 in
16:04 30.2 °F 26.8 °F 29.56 in NW 6.0 mph 15.0 mph 87% 0.00 in
16:09 30.1 °F 26.7 °F 29.56 in WNW 12.0 mph 14.0 mph 87% 0.00 in
16:14 29.9 °F 26.5 °F 29.56 in WNW 7.0 mph 16.0 mph 87% 0.00 in
16:19 29.8 °F 26.1 °F 29.56 in WNW 9.0 mph 16.0 mph 86% 0.00 in
16:24 29.9 °F 26.2 °F 29.57 in WNW 8.0 mph 13.0 mph 86% 0.00 in
16:29 29.9 °F 25.9 °F 29.57 in West 10.0 mph 12.0 mph 85% 0.00 in
16:34 29.9 °F 25.9 °F 29.57 in WNW 6.0 mph 16.0 mph 85% 0.00 in
16:39 29.5 °F 25.0 °F 29.57 in West 11.0 mph 18.0 mph 83% 0.00 in
16:44 29.5 °F 24.7 °F 29.57 in West 4.0 mph 19.0 mph 82% 0.00 in
16:49 29.6 °F 24.5 °F 29.58 in NW 6.0 mph 12.0 mph 81% 0.00 in
16:54 29.6 °F 23.9 °F 29.58 in WNW 7.0 mph 15.0 mph 79% 0.00 in
16:59 29.6 °F 23.6 °F 29.58 in NW 5.0 mph 18.0 mph 78% 0.00 in
17:04 29.3 °F 23.3 °F 29.58 in WNW 8.0 mph 18.0 mph 78% 0.00 in
17:09 29.3 °F 23.3 °F 29.58 in WNW 7.0 mph 17.0 mph 78% 0.00 in
17:14 29.3 °F 23.0 °F 29.59 in North 6.0 mph 15.0 mph 77% 0.00 in
17:19 29.2 °F 22.9 °F 29.59 in WNW 8.0 mph 15.0 mph 77% 0.00 in
17:24 29.1 °F 22.5 °F 29.59 in NW 8.0 mph 19.0 mph 76% 0.00 in
17:29 28.9 °F 22.0 °F 29.60 in WNW 9.0 mph 21.0 mph 75% 0.00 in
17:34 28.7 °F 21.8 °F 29.60 in WNW 9.0 mph 21.0 mph 75% 0.00 in
17:39 28.5 °F 21.6 °F 29.61 in WNW 5.0 mph 19.0 mph 75% 0.00 in
17:44 28.1 °F 20.9 °F 29.61 in WNW 11.0 mph 16.0 mph 74% 0.00 in
17:49 27.9 °F 21.0 °F 29.61 in WNW 9.0 mph 17.0 mph 75% 0.00 in
17:54 27.8 °F 20.9 °F 29.61 in WSW 11.0 mph 15.0 mph 75% 0.00 in
17:59 27.8 °F 20.9 °F 29.61 in WNW 12.0 mph 18.0 mph 75% 0.00 in
18:04 27.8 °F 20.9 °F 29.62 in NW 11.0 mph 15.0 mph 75% 0.00 in
18:09 27.8 °F 20.6 °F 29.62 in WNW 7.0 mph 15.0 mph 74% 0.00 in
18:14 27.9 °F 20.7 °F 29.62 in WNW 8.0 mph 17.0 mph 74% 0.00 in
18:19 27.9 °F 20.7 °F 29.62 in WNW 8.0 mph 14.0 mph 74% 0.00 in
18:24 27.9 °F 20.7 °F 29.62 in WNW 7.0 mph 17.0 mph 74% 0.00 in
18:29 27.9 °F 20.7 °F 29.62 in SW 2.0 mph 12.0 mph 74% 0.00 in
18:34 27.9 °F 20.7 °F 29.63 in WNW 11.0 mph 17.0 mph 74% 0.00 in
18:39 27.8 °F 20.9 °F 29.63 in WSW 9.0 mph 17.0 mph 75% 0.00 in
18:44 27.7 °F 21.1 °F 29.63 in West 8.0 mph 17.0 mph 76% 0.00 in
18:49 27.7 °F 21.1 °F 29.63 in WNW 7.0 mph 16.0 mph 76% 0.00 in
18:54 27.6 °F 21.0 °F 29.64 in West 10.0 mph 13.0 mph 76% 0.00 in
18:59 27.6 °F 21.3 °F 29.64 in NW 6.0 mph 12.0 mph 77% 0.00 in
19:04 27.4 °F 20.8 °F 29.64 in WNW 10.0 mph 18.0 mph 76% 0.00 in
19:09 27.2 °F 20.6 °F 29.64 in West 12.0 mph 15.0 mph 76% 0.00 in
19:14 26.9 °F 21.0 °F 29.65 in WNW 8.0 mph 16.0 mph 78% 0.00 in
19:19 26.6 °F 21.0 °F 29.65 in WNW 11.0 mph 17.0 mph 79% 0.00 in
19:24 26.5 °F 20.9 °F 29.65 in NW 6.0 mph 16.0 mph 79% 0.00 in
19:29 26.4 °F 21.1 °F 29.65 in West 6.0 mph 11.0 mph 80% 0.00 in
19:34 26.4 °F 21.1 °F 29.65 in WNW 7.0 mph 13.0 mph 80% 0.00 in
19:39 26.3 °F 21.0 °F 29.65 in WNW 4.0 mph 17.0 mph 80% 0.00 in
19:44 26.1 °F 21.1 °F 29.66 in WNW 8.0 mph 17.0 mph 81% 0.00 in
19:49 26.0 °F 21.3 °F 29.66 in WNW 2.0 mph 12.0 mph 82% 0.00 in
19:54 25.8 °F 21.3 °F 29.66 in West 10.0 mph 14.0 mph 83% 0.00 in
19:59 25.6 °F 21.2 °F 29.66 in NNW 16.0 mph 16.0 mph 83% 0.00 in
20:04 25.4 °F 21.2 °F 29.66 in NW 4.0 mph 16.0 mph 84% 0.00 in
20:09 25.4 °F 21.2 °F 29.66 in NNW 7.0 mph 12.0 mph 84% 0.00 in
20:14 25.3 °F 21.1 °F 29.66 in West 8.0 mph 13.0 mph 84% 0.00 in
20:19 25.2 °F 21.0 °F 29.66 in NW 6.0 mph 14.0 mph 84% 0.00 in
20:24 25.2 °F 21.0 °F 29.66 in West 3.0 mph 9.0 mph 84% 0.00 in
20:29 25.1 °F 20.9 °F 29.67 in WSW 4.0 mph 10.0 mph 84% 0.00 in
20:34 25.1 °F 21.2 °F 29.67 in NNW 12.0 mph 14.0 mph 85% 0.00 in
20:39 25.0 °F 20.8 °F 29.67 in West 4.0 mph 12.0 mph 84% 0.00 in
20:44 24.9 °F 20.5 °F 29.67 in WNW 7.0 mph 12.0 mph 83% 0.00 in
20:49 24.9 °F 20.2 °F 29.67 in WNW 6.0 mph 12.0 mph 82% 0.00 in
20:54 24.9 °F 19.9 °F 29.67 in WNW 6.0 mph 12.0 mph 81% 0.00 in
20:59 24.9 °F 19.9 °F 29.67 in NW 6.0 mph 12.0 mph 81% 0.00 in
21:04 24.8 °F 19.5 °F 29.67 in WNW 5.0 mph 13.0 mph 80% 0.00 in
21:09 24.7 °F 19.7 °F 29.67 in NW 6.0 mph 13.0 mph 81% 0.00 in
21:14 24.4 °F 19.7 °F 29.67 in West 7.0 mph 13.0 mph 82% 0.00 in
21:19 24.3 °F 19.6 °F 29.67 in WNW 6.0 mph 13.0 mph 82% 0.00 in
21:24 24.3 °F 19.6 °F 29.67 in West 7.0 mph 13.0 mph 82% 0.00 in
21:29 24.2 °F 19.2 °F 29.68 in West 4.0 mph 15.0 mph 81% 0.00 in
21:34 24.1 °F 19.1 °F 29.68 in WNW 2.0 mph 15.0 mph 81% 0.00 in
21:39 24.1 °F 19.1 °F 29.68 in WNW 9.0 mph 14.0 mph 81% 0.00 in
21:44 24.0 °F 19.3 °F 29.68 in WNW 6.0 mph 14.0 mph 82% 0.00 in
21:49 24.0 °F 19.3 °F 29.68 in WNW 6.0 mph 11.0 mph 82% 0.00 in
21:54 24.0 °F 19.3 °F 29.68 in WNW 6.0 mph 12.0 mph 82% 0.00 in
21:59 23.9 °F 19.2 °F 29.68 in WNW 6.0 mph 12.0 mph 82% 0.00 in
22:04 23.8 °F 19.4 °F 29.68 in WNW 4.0 mph 10.0 mph 83% 0.00 in
22:09 23.6 °F 19.2 °F 29.68 in NW 4.0 mph 15.0 mph 83% 0.00 in
22:14 23.6 °F 19.2 °F 29.68 in West 4.0 mph 10.0 mph 83% 0.00 in
22:19 23.5 °F 19.1 °F 29.68 in WNW 9.0 mph 9.0 mph 83% 0.00 in
22:24 23.5 °F 19.1 °F 29.68 in NW 5.0 mph 9.0 mph 83% 0.00 in
22:29 23.6 °F 19.2 °F 29.68 in NW 3.0 mph 13.0 mph 83% 0.00 in
22:34 23.6 °F 19.2 °F 29.68 in NW 2.0 mph 11.0 mph 83% 0.00 in
22:39 23.7 °F 19.3 °F 29.68 in West 8.0 mph 11.0 mph 83% 0.00 in
22:44 23.7 °F 19.3 °F 29.68 in WNW 6.0 mph 12.0 mph 83% 0.00 in
22:49 23.6 °F 19.2 °F 29.68 in WNW 5.0 mph 12.0 mph 83% 0.00 in
22:54 23.6 °F 19.5 °F 29.68 in WNW 5.0 mph 12.0 mph 84% 0.00 in
22:59 23.5 °F 19.4 °F 29.68 in WNW 5.0 mph 12.0 mph 84% 0.00 in
23:04 23.4 °F 19.6 °F 29.68 in WNW 5.0 mph 9.0 mph 85% 0.00 in
23:09 23.4 °F 19.6 °F 29.68 in NW 3.0 mph 9.0 mph 85% 0.00 in
23:14 23.4 °F 19.6 °F 29.68 in West 9.0 mph 9.0 mph 85% 0.00 in
23:19 23.4 °F 19.6 °F 29.68 in WNW 5.0 mph 10.0 mph 85% 0.00 in
23:24 23.4 °F 19.8 °F 29.68 in WNW 5.0 mph 10.0 mph 86% 0.00 in
23:29 23.4 °F 19.8 °F 29.68 in West 3.0 mph 9.0 mph 86% 0.00 in
23:34 23.4 °F 19.8 °F 29.68 in West 3.0 mph 8.0 mph 86% 0.00 in
23:39 23.4 °F 19.8 °F 29.68 in NW 3.0 mph 10.0 mph 86% 0.00 in
23:44 23.4 °F 19.8 °F 29.68 in NW 6.0 mph 10.0 mph 86% 0.00 in
23:49 23.4 °F 19.6 °F 29.68 in WNW 4.0 mph 11.0 mph 85% 0.00 in
23:54 23.4 °F 19.6 °F 29.68 in WNW 7.0 mph 11.0 mph 85% 0.00 in
23:59 23.5 °F 19.7 °F 29.68 in WNW 5.0 mph 11.0 mph 85% 0.00 in
Buffalo, New York, USA
Compliments of Weather Underground - 2.5 mb